Disclaimer

Please do not use the information listed here in-flight or in-navigation, as they are not provided to us by the airports but are provided by volunteers, so they might be outdated.

Search


Regions


Airport information page

Radio informations:
Tower (TWR) - 118.7 MHz
Ground (GND) - 121.9 MHz
Clearance delivery - 128.2 MHz
Approach (APP) - 124.3 MHz

Airport informations:
Latitude: 37° 00' 29.00" S
Longitude: 174° 47' 30.00" E
Elevation: 23 feet - 7 meters
Operating hours: NO OPERATING HOURS LISTED
Operating agency: Civil government, landing fees and diplomatic clearance may be required
Timezone: UTC+12(+13DT)
Fuel: Jet A1, without icing nhibitor.

100/130 octane gasoline, leaded, MIL-L-5572F (GREEN)

Runway information:
05R/23L - 11926 x 148 feet< - >3635 x 45 meters
05L/23R - 10197 x 148 feet< - >3108 x 45 meters

Recent METARs:
NZAA 162230Z AUTO 21006KT 170V240 9999 FEW065/// 19/13 Q1017 NOSIG
NZAA 162330Z AUTO 22007KT 170V250 9999 NCD 20/14 Q1016 NOSIG
NZAA 170000Z AUTO 22007KT 9999 BKN075/// 20/14 Q1016 NOSIG

Airport on the map: